Time;durP1;ratioP1;P1;durP2;ratioP2;P2;SDS_P1;SDS_P2;PMS_P1;PMS_P2;Temp;Humidity;BMP_temperature;BMP_pressure;BME280_temperature;BME280_humidity;BME280_pressure;Samples;Min_cycle;Max_cycle;Signal;HPM_P1;HPM_P2
2023/09/20 00:01:33;;;;;;;7.17;1.70;;;13.90;99.90;;;;;;5032467;28;20176;-70
2023/09/20 00:04:01;;;;;;;5.70;1.73;;;13.90;99.90;;;;;;5024256;28;20225;-68
2023/09/20 00:06:27;;;;;;;7.43;1.83;;;13.90;99.90;;;;;;5047017;28;20981;-68
2023/09/20 00:08:53;;;;;;;6.13;1.90;;;13.90;99.90;;;;;;5030489;28;20199;-69
2023/09/20 00:11:18;;;;;;;8.17;1.93;;;13.90;99.90;;;;;;5046689;28;20202;-68
2023/09/20 00:13:45;;;;;;;7.47;2.20;;;13.90;99.90;;;;;;5033862;28;20227;-69
2023/09/20 00:16:10;;;;;;;9.00;1.93;;;13.90;99.90;;;;;;5031992;28;20195;-69
2023/09/20 00:18:37;;;;;;;4.50;1.40;;;13.90;99.90;;;;;;5039702;28;20196;-69
2023/09/20 00:21:03;;;;;;;3.70;1.77;;;13.90;99.90;;;;;;5040455;28;20191;-68
2023/09/20 00:23:29;;;;;;;6.03;1.87;;;13.90;99.90;;;;;;5032010;28;20182;-68
2023/09/20 00:25:55;;;;;;;5.70;1.87;;;13.90;99.90;;;;;;5039784;28;20208;-68
2023/09/20 00:28:21;;;;;;;5.63;1.60;;;13.90;99.90;;;;;;5044754;28;20190;-69
2023/09/20 00:30:47;;;;;;;6.00;1.73;;;13.90;99.90;;;;;;5043423;28;20187;-69
2023/09/20 00:33:14;;;;;;;5.60;1.70;;;13.90;99.90;;;;;;5043198;28;20730;-68
2023/09/20 00:35:39;;;;;;;5.03;1.90;;;13.80;99.90;;;;;;5042422;28;20740;-67
2023/09/20 00:38:05;;;;;;;3.73;1.83;;;13.90;99.90;;;;;;5039243;28;20172;-68
2023/09/20 00:40:33;;;;;;;3.80;1.97;;;13.90;99.90;;;;;;5031648;28;20184;-69
2023/09/20 00:42:58;;;;;;;10.53;1.70;;;13.90;99.90;;;;;;5031548;28;20769;-67
2023/09/20 00:45:24;;;;;;;3.83;1.90;;;13.90;99.90;;;;;;5039933;28;20200;-69
2023/09/20 00:47:56;;;;;;;4.10;1.70;;;14.00;99.90;;;;;;5041136;28;20207;-68
2023/09/20 00:50:26;;;;;;;6.03;2.00;;;14.10;99.90;;;;;;5051752;28;20562;-68
2023/09/20 00:52:54;;;;;;;5.47;1.80;;;14.10;99.90;;;;;;5039411;28;20286;-68
2023/09/20 00:55:24;;;;;;;4.80;1.60;;;14.20;99.90;;;;;;5046005;28;20269;-68
2023/09/20 00:58:04;;;;;;;5.07;1.60;;;14.20;99.90;;;;;;5050574;28;20229;-68
2023/09/20 01:00:32;;;;;;;5.73;1.90;;;14.10;99.90;;;;;;5051082;28;20234;-68
2023/09/20 01:03:00;;;;;;;3.40;1.70;;;14.10;99.90;;;;;;5039480;28;20191;-68
2023/09/20 01:05:26;;;;;;;7.37;1.90;;;14.00;99.90;;;;;;5038264;28;20205;-68
2023/09/20 01:07:56;;;;;;;4.53;1.70;;;14.10;99.90;;;;;;5042179;28;20191;-68
2023/09/20 01:10:25;;;;;;;5.00;1.53;;;14.10;99.90;;;;;;5042598;28;20182;-69
2023/09/20 01:12:53;;;;;;;6.70;1.83;;;14.00;99.90;;;;;;5040255;28;20194;-68
2023/09/20 01:15:21;;;;;;;8.27;1.77;;;14.00;99.90;;;;;;5045508;28;20190;-68
2023/09/20 01:17:47;;;;;;;5.50;1.90;;;14.00;99.90;;;;;;5031783;28;20198;-67
2023/09/20 01:20:18;;;;;;;6.57;1.53;;;14.00;99.90;;;;;;5043395;28;20869;-68
2023/09/20 01:22:45;;;;;;;3.87;1.70;;;13.90;99.90;;;;;;5041053;28;20176;-68
2023/09/20 01:25:18;;;;;;;4.30;1.90;;;13.90;99.90;;;;;;5043988;28;20340;-68
2023/09/20 01:27:43;;;;;;;4.17;1.50;;;13.90;99.90;;;;;;5047710;28;20795;-68
2023/09/20 01:30:11;;;;;;;7.93;2.17;;;13.80;99.90;;;;;;5037703;28;20271;-68
2023/09/20 01:32:37;;;;;;;6.33;1.80;;;13.80;99.90;;;;;;5030484;28;20184;-67
2023/09/20 01:35:04;;;;;;;4.97;1.80;;;13.80;99.90;;;;;;5042824;28;20199;-68
2023/09/20 01:37:30;;;;;;;5.33;1.47;;;13.70;99.90;;;;;;5042912;28;20187;-68
2023/09/20 01:39:56;;;;;;;7.00;1.70;;;13.60;99.90;;;;;;5049450;28;20675;-68
2023/09/20 01:42:21;;;;;;;6.17;1.47;;;13.60;99.90;;;;;;5035996;28;20252;-68
2023/09/20 01:44:49;;;;;;;4.77;1.83;;;13.60;99.90;;;;;;5038686;28;20207;-69
2023/09/20 01:47:18;;;;;;;5.40;2.13;;;13.50;99.90;;;;;;5030103;28;20176;-68
2023/09/20 01:49:44;;;;;;;4.23;1.80;;;13.40;99.90;;;;;;5026071;28;20188;-67
2023/09/20 01:52:10;;;;;;;11.00;2.47;;;13.30;99.90;;;;;;5030553;28;20194;-67
2023/09/20 01:54:37;;;;;;;5.93;2.33;;;13.30;99.90;;;;;;5038396;28;20202;-67
2023/09/20 01:57:04;;;;;;;4.93;2.00;;;13.30;99.90;;;;;;5034282;28;20263;-68
2023/09/20 01:59:30;;;;;;;5.93;2.10;;;13.20;99.90;;;;;;5049723;28;20591;-68
2023/09/20 02:01:56;;;;;;;6.07;1.70;;;13.20;99.90;;;;;;5053788;28;20188;-68
2023/09/20 02:04:22;;;;;;;8.00;2.10;;;13.20;99.90;;;;;;5030194;28;20202;-69
2023/09/20 02:06:48;;;;;;;6.17;2.07;;;13.30;99.90;;;;;;5040094;28;20215;-67
2023/09/20 02:09:14;;;;;;;7.37;2.03;;;13.30;99.90;;;;;;5041450;28;20205;-68
2023/09/20 02:11:40;;;;;;;6.13;2.23;;;13.30;99.90;;;;;;5041045;28;20269;-67
2023/09/20 02:14:05;;;;;;;5.87;1.77;;;13.30;99.90;;;;;;5034275;28;20293;-68
2023/09/20 02:16:32;;;;;;;4.33;2.17;;;13.30;99.90;;;;;;5049874;28;20235;-68
2023/09/20 02:18:58;;;;;;;6.93;2.00;;;13.30;99.90;;;;;;5038090;28;20195;-67
2023/09/20 02:21:23;;;;;;;5.07;1.70;;;13.30;99.90;;;;;;5030172;28;20176;-68
2023/09/20 02:23:56;;;;;;;7.97;1.80;;;13.30;99.90;;;;;;5029885;28;20179;-68
2023/09/20 02:26:21;;;;;;;4.40;2.10;;;13.30;99.90;;;;;;5030058;28;20195;-68
2023/09/20 02:28:47;;;;;;;5.07;2.00;;;13.20;99.90;;;;;;5047522;28;20550;-68
2023/09/20 02:31:13;;;;;;;5.33;2.00;;;13.30;99.90;;;;;;5038496;28;20552;-68
2023/09/20 02:33:39;;;;;;;5.93;1.97;;;13.20;99.90;;;;;;5033921;28;20226;-68
2023/09/20 02:36:05;;;;;;;6.53;1.87;;;13.10;99.90;;;;;;5042399;28;20191;-68
2023/09/20 02:38:34;;;;;;;6.47;2.20;;;13.10;99.90;;;;;;5040687;28;20175;-68
2023/09/20 02:40:59;;;;;;;4.73;1.80;;;13.10;99.90;;;;;;5050468;28;20247;-68
2023/09/20 02:43:26;;;;;;;6.07;1.57;;;13.10;99.90;;;;;;5034171;28;20618;-68
2023/09/20 02:45:52;;;;;;;5.23;1.70;;;13.10;99.90;;;;;;5033642;28;20253;-68
2023/09/20 02:48:18;;;;;;;6.53;1.90;;;13.10;99.90;;;;;;5040065;28;20406;-68
2023/09/20 02:50:44;;;;;;;6.13;2.17;;;13.00;99.90;;;;;;5033553;28;20190;-69
2023/09/20 02:53:10;;;;;;;6.77;2.40;;;13.00;99.90;;;;;;5042039;28;20261;-69
2023/09/20 02:55:35;;;;;;;5.77;2.00;;;13.00;99.90;;;;;;5041742;28;20679;-69
2023/09/20 02:58:01;;;;;;;6.00;2.27;;;13.00;99.90;;;;;;5027741;28;20266;-67
2023/09/20 03:00:31;;;;;;;7.53;1.80;;;13.00;99.90;;;;;;5045383;28;20214;-68
2023/09/20 03:03:00;;;;;;;4.27;1.87;;;13.00;99.90;;;;;;5042247;28;20648;-68
2023/09/20 03:05:28;;;;;;;6.90;2.03;;;13.00;99.90;;;;;;5033549;28;20250;-68
2023/09/20 03:07:55;;;;;;;4.07;1.60;;;12.90;99.90;;;;;;5040924;28;20614;-67
2023/09/20 03:10:22;;;;;;;6.50;1.77;;;12.90;99.90;;;;;;5041598;28;20721;-68
2023/09/20 03:12:51;;;;;;;4.17;1.90;;;12.90;99.90;;;;;;5041533;28;20186;-68
2023/09/20 03:15:21;;;;;;;6.27;2.10;;;12.80;99.90;;;;;;5033537;28;20192;-68
2023/09/20 03:17:48;;;;;;;4.07;2.13;;;12.80;99.90;;;;;;5048998;28;20204;-69
2023/09/20 03:20:24;;;;;;;7.90;2.10;;;12.80;99.90;;;;;;5046740;28;20250;-68
2023/09/20 03:22:57;;;;;;;3.87;2.10;;;12.80;99.90;;;;;;5042913;28;20176;-67
2023/09/20 03:25:23;;;;;;;6.97;2.13;;;12.80;99.90;;;;;;5033087;28;20748;-67
2023/09/20 03:27:50;;;;;;;8.13;1.80;;;12.80;99.90;;;;;;5040521;28;20180;-67
2023/09/20 03:30:16;;;;;;;6.20;2.47;;;12.90;99.90;;;;;;5038396;28;20181;-68
2023/09/20 03:32:44;;;;;;;5.97;2.07;;;12.80;99.90;;;;;;5044381;28;20544;-67
2023/09/20 03:35:12;;;;;;;9.60;2.40;;;12.80;99.90;;;;;;5040051;28;20811;-68
2023/09/20 03:37:39;;;;;;;3.57;1.80;;;12.80;99.90;;;;;;5032871;28;20184;-67
2023/09/20 03:40:19;;;;;;;5.67;2.00;;;12.80;99.90;;;;;;5033133;28;20188;-68
2023/09/20 03:42:46;;;;;;;6.27;1.83;;;12.80;99.90;;;;;;5041931;28;20187;-68
2023/09/20 03:45:14;;;;;;;4.43;2.13;;;12.80;99.90;;;;;;5039679;28;20216;-68
2023/09/20 03:47:49;;;;;;;8.73;2.03;;;12.80;99.90;;;;;;5032688;28;20191;-67
2023/09/20 03:50:19;;;;;;;4.30;2.30;;;12.80;99.90;;;;;;5045141;28;20642;-68
2023/09/20 03:52:48;;;;;;;10.10;2.80;;;12.70;99.90;;;;;;5044157;28;20178;-67
2023/09/20 03:55:14;;;;;;;6.37;2.97;;;12.70;99.90;;;;;;5039168;28;20270;-68
2023/09/20 03:57:40;;;;;;;11.10;3.03;;;12.70;99.90;;;;;;5032650;28;20203;-67
2023/09/20 04:00:11;;;;;;;11.90;3.40;;;12.70;99.90;;;;;;5040291;28;20180;-67
2023/09/20 04:02:40;;;;;;;8.90;3.03;;;12.60;99.90;;;;;;5040661;28;20171;-67
2023/09/20 04:05:10;;;;;;;7.27;3.20;;;12.70;99.90;;;;;;5036423;28;20252;-67
2023/09/20 04:07:36;;;;;;;9.20;3.13;;;12.70;99.90;;;;;;5035792;28;20187;-68
2023/09/20 04:10:02;;;;;;;12.00;4.87;;;12.70;99.90;;;;;;5031629;28;20183;-68
2023/09/20 04:12:28;;;;;;;14.83;5.60;;;12.70;99.90;;;;;;5040556;28;20329;-68
2023/09/20 04:14:54;;;;;;;25.77;9.77;;;12.70;99.90;;;;;;5034513;28;20214;-68
2023/09/20 04:17:21;;;;;;;11.93;4.63;;;12.70;99.90;;;;;;5033330;28;20188;-68
2023/09/20 04:19:47;;;;;;;5.80;3.10;;;12.70;99.90;;;;;;5029394;28;20186;-67
2023/09/20 04:22:14;;;;;;;6.67;2.80;;;12.70;99.90;;;;;;5032282;28;20591;-67
2023/09/20 04:24:39;;;;;;;8.80;2.80;;;12.60;99.90;;;;;;5040083;28;20183;-67
2023/09/20 04:27:05;;;;;;;8.23;2.50;;;12.60;99.90;;;;;;5036051;28;20457;-67
2023/09/20 04:29:31;;;;;;;8.57;3.13;;;12.60;99.90;;;;;;5051612;28;20187;-67
2023/09/20 04:31:57;;;;;;;19.00;7.13;;;12.50;99.90;;;;;;5032744;28;20194;-68
2023/09/20 04:34:24;;;;;;;9.00;4.50;;;12.50;99.90;;;;;;5031880;28;20207;-68
2023/09/20 04:36:52;;;;;;;11.60;5.30;;;12.50;99.90;;;;;;5040144;28;20195;-68
2023/09/20 04:39:19;;;;;;;8.27;3.50;;;12.50;99.90;;;;;;5031656;28;20639;-69
2023/09/20 04:41:46;;;;;;;8.40;2.93;;;12.50;99.90;;;;;;5031938;28;20662;-67
2023/09/20 04:44:13;;;;;;;7.00;3.50;;;12.50;99.90;;;;;;5031890;28;20203;-68
2023/09/20 04:46:39;;;;;;;8.40;2.77;;;12.50;99.90;;;;;;5031612;28;20204;-68
2023/09/20 04:49:09;;;;;;;7.27;2.80;;;12.40;99.90;;;;;;5039576;28;20238;-67
2023/09/20 04:51:35;;;;;;;7.57;3.40;;;12.50;99.90;;;;;;5031484;28;20266;-68
2023/09/20 04:54:01;;;;;;;6.53;2.73;;;12.50;99.90;;;;;;5030562;28;20195;-67
2023/09/20 04:56:27;;;;;;;8.53;2.50;;;12.50;99.90;;;;;;5040089;28;20233;-67
2023/09/20 04:58:53;;;;;;;6.37;2.90;;;12.40;99.90;;;;;;5030611;28;20179;-68
2023/09/20 05:01:18;;;;;;;11.30;4.30;;;12.30;99.90;;;;;;5031625;28;20211;-67
2023/09/20 05:03:44;;;;;;;7.53;3.00;;;12.30;99.90;;;;;;5031105;28;20237;-67
2023/09/20 05:06:10;;;;;;;6.93;3.10;;;12.30;99.90;;;;;;5039432;28;20203;-69
2023/09/20 05:08:37;;;;;;;6.20;3.10;;;12.30;99.90;;;;;;5046945;28;20597;-67
2023/09/20 05:11:04;;;;;;;5.53;3.03;;;12.30;99.90;;;;;;5047510;28;20187;-68
2023/09/20 05:13:30;;;;;;;4.93;2.73;;;12.30;99.90;;;;;;5030998;28;20195;-68
2023/09/20 05:15:55;;;;;;;6.80;2.97;;;12.30;99.90;;;;;;5039487;28;20207;-69
2023/09/20 05:18:21;;;;;;;6.83;3.00;;;12.30;99.90;;;;;;5044688;28;20237;-69
2023/09/20 05:20:47;;;;;;;30.97;14.77;;;12.20;99.90;;;;;;5032259;28;20209;-69
2023/09/20 05:23:13;;;;;;;12.67;4.83;;;12.20;99.90;;;;;;5030206;28;20210;-67
2023/09/20 05:25:39;;;;;;;9.20;4.07;;;12.20;99.90;;;;;;5030364;28;20603;-69
2023/09/20 05:28:05;;;;;;;7.93;3.30;;;12.20;99.90;;;;;;5030207;28;20191;-69
2023/09/20 05:30:31;;;;;;;5.13;2.80;;;12.30;99.90;;;;;;5045718;28;20183;-68
2023/09/20 05:32:59;;;;;;;6.47;2.80;;;12.20;99.90;;;;;;5038691;28;20219;-68
2023/09/20 05:35:26;;;;;;;7.67;2.90;;;12.30;99.90;;;;;;5029830;28;20198;-68
2023/09/20 05:37:51;;;;;;;6.60;3.30;;;12.30;99.90;;;;;;5039267;28;20640;-68
2023/09/20 05:40:17;;;;;;;6.20;3.33;;;12.40;99.90;;;;;;5041562;28;20180;-68
2023/09/20 05:42:47;;;;;;;9.73;3.40;;;12.40;99.90;;;;;;5049355;28;20187;-68
2023/09/20 05:45:13;;;;;;;5.30;3.73;;;12.50;99.90;;;;;;5044832;28;20294;-69
2023/09/20 05:47:42;;;;;;;7.93;3.37;;;12.50;99.90;;;;;;5029452;28;20183;-68
2023/09/20 05:50:13;;;;;;;4.57;3.30;;;12.60;99.90;;;;;;5040834;28;20186;-68
2023/09/20 05:52:43;;;;;;;7.97;4.13;;;12.60;99.90;;;;;;5049292;28;20654;-68
2023/09/20 05:55:13;;;;;;;10.63;4.87;;;12.70;99.90;;;;;;5037657;28;20272;-68
2023/09/20 05:57:48;;;;;;;10.00;5.00;;;12.70;99.90;;;;;;5029396;28;20186;-68
2023/09/20 06:00:21;;;;;;;11.27;5.10;;;12.70;99.90;;;;;;5041413;28;20186;-68
2023/09/20 06:02:47;;;;;;;8.83;4.03;;;12.70;99.90;;;;;;5054061;28;20183;-69
2023/09/20 06:05:14;;;;;;;6.40;2.90;;;12.80;99.90;;;;;;5029022;28;20286;-68
2023/09/20 06:07:40;;;;;;;9.00;2.77;;;12.90;99.90;;;;;;5037363;28;20183;-68
2023/09/20 06:10:07;;;;;;;6.07;2.67;;;13.00;99.90;;;;;;5029134;28;20179;-68
2023/09/20 06:12:33;;;;;;;8.43;2.47;;;13.20;99.90;;;;;;5045221;28;20183;-68
2023/09/20 06:14:59;;;;;;;8.00;2.70;;;13.50;99.90;;;;;;5032672;28;20309;-68
2023/09/20 06:17:29;;;;;;;8.97;2.97;;;13.70;99.90;;;;;;5040870;28;20193;-68
2023/09/20 06:19:57;;;;;;;6.37;2.60;;;13.80;99.90;;;;;;5031924;28;20670;-68
2023/09/20 06:22:27;;;;;;;7.20;2.47;;;13.90;99.90;;;;;;5031932;28;20207;-68
2023/09/20 06:24:53;;;;;;;7.70;2.43;;;14.10;99.90;;;;;;5029062;28;20226;-68
2023/09/20 06:27:20;;;;;;;9.13;2.77;;;14.20;99.90;;;;;;5029181;28;20188;-68
2023/09/20 06:29:45;;;;;;;7.10;2.40;;;14.30;99.90;;;;;;5029428;28;20678;-68
2023/09/20 06:32:12;;;;;;;8.47;2.47;;;14.40;99.90;;;;;;5041059;28;20183;-68
2023/09/20 06:34:38;;;;;;;8.00;2.50;;;14.50;99.90;;;;;;5040477;28;20273;-68
2023/09/20 06:37:03;;;;;;;10.63;2.57;;;14.50;99.90;;;;;;5041155;28;20380;-68
2023/09/20 06:39:29;;;;;;;9.93;3.90;;;14.60;99.90;;;;;;5048361;28;20206;-68
2023/09/20 06:41:57;;;;;;;7.60;4.00;;;14.70;99.90;;;;;;5032152;28;20179;-68
2023/09/20 06:44:23;;;;;;;8.30;2.60;;;14.90;99.90;;;;;;5034556;28;20192;-68
2023/09/20 06:46:49;;;;;;;11.53;3.00;;;15.10;99.90;;;;;;5028891;28;20231;-68
2023/09/20 06:49:15;;;;;;;9.93;2.43;;;15.30;99.90;;;;;;5036690;28;20184;-68
2023/09/20 06:51:43;;;;;;;6.57;2.13;;;15.30;99.90;;;;;;5028624;28;20198;-68
2023/09/20 06:54:09;;;;;;;6.50;2.23;;;15.40;99.90;;;;;;5041449;28;20272;-68
2023/09/20 06:56:35;;;;;;;8.97;2.10;;;15.50;99.90;;;;;;5041000;28;20675;-69
2023/09/20 06:59:01;;;;;;;4.87;1.97;;;15.60;99.90;;;;;;5036287;28;20188;-69
2023/09/20 07:01:27;;;;;;;4.23;2.03;;;15.70;99.90;;;;;;5035697;28;20187;-69
2023/09/20 07:03:52;;;;;;;3.30;1.73;;;15.70;99.90;;;;;;5048666;28;20213;-68
2023/09/20 07:06:18;;;;;;;6.30;2.20;;;15.80;99.90;;;;;;5048861;28;20248;-69
2023/09/20 07:08:45;;;;;;;5.33;2.20;;;15.80;99.90;;;;;;5047115;28;20183;-68
2023/09/20 07:11:13;;;;;;;5.90;1.80;;;15.70;99.90;;;;;;5041496;28;20670;-69
2023/09/20 07:13:38;;;;;;;7.27;1.90;;;15.80;99.90;;;;;;5031990;28;20300;-67
2023/09/20 07:16:05;;;;;;;9.93;3.90;;;15.80;99.90;;;;;;5040394;28;20257;-68
2023/09/20 07:18:35;;;;;;;8.20;3.47;;;15.90;99.90;;;;;;5036238;28;20299;-69
2023/09/20 07:21:02;;;;;;;8.43;1.97;;;16.10;99.90;;;;;;5043594;28;20171;-68
2023/09/20 07:23:29;;;;;;;3.47;1.53;;;16.30;99.90;;;;;;5045589;28;20199;-69
2023/09/20 07:25:55;;;;;;;5.37;1.87;;;16.40;99.90;;;;;;5042728;28;20548;-68
2023/09/20 07:28:24;;;;;;;7.60;2.13;;;16.50;99.90;;;;;;5051447;28;20186;-69
2023/09/20 07:30:49;;;;;;;4.97;1.90;;;16.60;99.90;;;;;;5042131;28;20206;-69
2023/09/20 07:33:19;;;;;;;6.63;1.70;;;16.70;99.90;;;;;;5032052;28;20686;-69
2023/09/20 07:35:47;;;;;;;9.80;2.20;;;16.80;99.90;;;;;;5049376;28;20211;-69
2023/09/20 07:38:19;;;;;;;5.13;1.77;;;16.90;99.90;;;;;;5046696;28;20237;-69
2023/09/20 07:40:50;;;;;;;7.00;2.07;;;17.00;99.90;;;;;;5041189;28;20242;-69
2023/09/20 07:43:17;;;;;;;7.23;1.80;;;17.20;99.90;;;;;;5046761;28;20333;-69
2023/09/20 07:45:42;;;;;;;4.03;1.77;;;17.40;99.90;;;;;;5032052;28;20314;-70
2023/09/20 07:48:12;;;;;;;7.20;1.70;;;17.60;99.90;;;;;;5031597;28;20757;-69
2023/09/20 07:50:41;;;;;;;4.87;1.40;;;18.00;99.90;;;;;;5040260;28;20629;-69
2023/09/20 07:53:11;;;;;;;6.27;1.57;;;18.20;99.90;;;;;;5047688;28;20195;-69
2023/09/20 07:55:41;;;;;;;9.47;3.20;;;18.40;99.90;;;;;;5032067;28;20687;-68
2023/09/20 07:58:08;;;;;;;3.57;1.50;;;18.70;99.90;;;;;;5027114;28;20201;-69
2023/09/20 08:00:44;;;;;;;7.70;1.87;;;18.90;99.90;;;;;;5035894;28;20180;-69
2023/09/20 08:03:13;;;;;;;4.47;1.50;;;18.90;99.90;;;;;;5028201;28;20174;-69
2023/09/20 08:05:41;;;;;;;6.77;1.50;;;19.20;99.90;;;;;;5035065;28;20219;-69
2023/09/20 08:08:07;;;;;;;7.60;2.20;;;19.40;99.90;;;;;;5035079;28;20233;-69
2023/09/20 08:10:38;;;;;;;6.13;2.00;;;19.70;99.90;;;;;;5044291;28;20198;-70
2023/09/20 08:13:05;;;;;;;8.27;3.20;;;20.00;99.90;;;;;;5042394;28;20278;-70
2023/09/20 08:15:44;;;;;;;4.30;1.60;;;20.40;99.90;;;;;;5051366;28;20199;-69
2023/09/20 08:20:55;;;;;;;5.87;1.10;;;21.30;99.90;;;;;;5049044;28;20206;-67
2023/09/20 09:01:46;;;;;;;5.17;1.40;;;23.60;99.90;;;;;;5039040;28;20262;-68
2023/09/20 09:04:17;;;;;;;3.60;1.30;;;23.50;99.90;;;;;;5042985;28;20231;-69
2023/09/20 09:06:43;;;;;;;3.07;1.37;;;23.40;99.90;;;;;;5033554;28;20644;-68
2023/09/20 09:09:10;;;;;;;3.27;1.47;;;23.30;99.90;;;;;;5033997;28;20191;-69
2023/09/20 09:11:36;;;;;;;4.73;1.53;;;23.30;99.90;;;;;;5034444;28;20178;-69
2023/09/20 09:14:03;;;;;;;4.47;1.17;;;23.10;99.90;;;;;;5030086;28;20197;-69
2023/09/20 09:16:33;;;;;;;4.03;1.17;;;23.00;99.90;;;;;;5030234;28;20581;-69
2023/09/20 09:18:59;;;;;;;3.27;1.30;;;23.20;99.90;;;;;;5029288;28;20720;-68
2023/09/20 09:21:29;;;;;;;3.33;1.30;;;23.00;99.90;;;;;;5036648;28;20168;-68
2023/09/20 09:23:56;;;;;;;4.13;1.20;;;23.10;99.90;;;;;;5041426;28;20269;-69
2023/09/20 09:26:24;;;;;;;2.73;1.20;;;23.80;99.90;;;;;;5041650;28;20191;-68
2023/09/20 09:28:51;;;;;;;4.33;1.43;;;24.20;99.90;;;;;;5031037;28;20257;-68
2023/09/20 09:31:17;;;;;;;2.13;1.10;;;24.90;99.90;;;;;;5038809;28;20227;-68
2023/09/20 09:33:43;;;;;;;5.17;1.40;;;25.10;99.90;;;;;;5037903;28;20734;-68
2023/09/20 09:36:10;;;;;;;2.93;1.10;;;25.40;99.90;;;;;;5034104;28;20226;-68
2023/09/20 09:38:39;;;;;;;9.77;1.50;;;25.80;99.90;;;;;;5040971;28;20245;-68
2023/09/20 09:41:05;;;;;;;2.53;1.33;;;26.50;99.90;;;;;;5049288;28;20171;-68
2023/09/20 09:43:32;;;;;;;4.43;1.30;;;26.60;99.90;;;;;;5042627;28;20198;-68
2023/09/20 09:46:15;;;;;;;5.93;1.20;;;27.10;99.90;;;;;;5039247;28;20302;-68
2023/09/20 09:48:42;;;;;;;4.40;1.10;;;27.40;99.90;;;;;;5048879;28;20184;-67
2023/09/20 09:51:09;;;;;;;5.10;1.30;;;27.90;99.90;;;;;;5049726;28;20626;-67
2023/09/20 09:53:39;;;;;;;4.40;1.53;;;27.40;99.90;;;;;;5049482;28;20678;-67
2023/09/20 09:56:05;;;;;;;3.07;1.33;;;27.00;99.90;;;;;;5049304;28;20207;-67
2023/09/20 09:58:32;;;;;;;4.50;1.40;;;27.30;99.90;;;;;;5048928;28;20245;-67
2023/09/20 10:00:58;;;;;;;7.17;1.20;;;27.10;99.90;;;;;;5049351;28;20687;-67
2023/09/20 10:03:29;;;;;;;2.60;1.27;;;27.00;99.90;;;;;;5049509;28;20187;-68
2023/09/20 10:06:11;;;;;;;3.63;1.50;;;26.50;99.90;;;;;;5048944;28;20257;-67
2023/09/20 10:08:39;;;;;;;2.87;1.30;;;26.20;99.90;;;;;;5048884;28;20714;-67
2023/09/20 10:11:06;;;;;;;2.53;1.30;;;25.90;99.90;;;;;;5041065;28;20655;-67
2023/09/20 10:13:35;;;;;;;3.23;1.30;;;25.50;99.90;;;;;;5041136;28;20218;-68
2023/09/20 10:16:04;;;;;;;3.77;1.47;;;25.10;99.90;;;;;;5040481;28;20261;-67
2023/09/20 10:18:53;;;;;;;5.00;2.07;;;25.00;99.90;;;;;;5042136;28;20207;-67
2023/09/20 10:21:24;;;;;;;3.80;1.50;;;25.00;99.90;;;;;;5035018;28;20179;-67
2023/09/20 10:24:00;;;;;;;2.17;1.30;;;24.80;99.90;;;;;;5048906;28;20187;-67
2023/09/20 10:26:27;;;;;;;4.60;1.60;;;24.30;99.90;;;;;;5049170;28;20206;-67
2023/09/20 10:29:24;;;;;;;2.30;1.40;;;24.10;99.90;;;;;;5037431;28;20198;-68
2023/09/20 10:31:52;;;;;;;3.37;1.60;;;23.80;99.90;;;;;;5028139;28;20288;-67
2023/09/20 10:34:21;;;;;;;2.93;1.30;;;23.50;99.90;;;;;;5034067;28;20267;-68
2023/09/20 10:36:53;;;;;;;2.83;1.33;;;23.40;99.90;;;;;;5032439;28;20212;-68
2023/09/20 10:39:19;;;;;;;4.97;1.50;;;23.00;99.90;;;;;;5043128;28;20239;-68
2023/09/20 10:41:47;;;;;;;2.70;1.70;;;22.70;99.90;;;;;;5028953;28;20185;-67
2023/09/20 10:44:29;;;;;;;2.63;1.30;;;22.50;99.90;;;;;;5037593;28;20647;-70
2023/09/20 10:46:59;;;;;;;3.13;1.40;;;22.50;99.90;;;;;;5037514;28;20232;-69
2023/09/20 10:49:47;;;;;;;4.00;1.40;;;22.30;99.90;;;;;;5042629;28;20758;-69
2023/09/20 10:52:33;;;;;;;5.23;1.60;;;22.30;99.90;;;;;;5027022;28;20223;-69
2023/09/20 10:55:22;;;;;;;4.00;1.63;;;22.30;99.90;;;;;;5052435;28;20203;-69
2023/09/20 10:57:49;;;;;;;2.50;1.43;;;22.30;99.90;;;;;;5043602;28;20184;-69
2023/09/20 11:00:18;;;;;;;4.67;1.73;;;22.20;99.90;;;;;;5048349;28;20177;-68
2023/09/20 11:02:45;;;;;;;3.20;1.40;;;22.10;99.90;;;;;;5039641;28;20190;-69
2023/09/20 11:05:11;;;;;;;3.80;1.67;;;22.10;99.90;;;;;;5044658;28;20210;-69
2023/09/20 11:07:39;;;;;;;3.60;1.80;;;22.00;99.90;;;;;;5052669;28;20184;-68
2023/09/20 11:10:10;;;;;;;3.23;1.70;;;21.90;99.90;;;;;;5048709;28;20249;-69
2023/09/20 11:12:36;;;;;;;2.70;1.47;;;22.10;99.90;;;;;;5048536;28;20183;-69
2023/09/20 11:15:05;;;;;;;4.90;1.60;;;22.30;99.90;;;;;;5052404;28;20215;-69
2023/09/20 11:17:31;;;;;;;4.70;1.70;;;22.60;99.90;;;;;;5052455;28;20728;-69
2023/09/20 11:19:58;;;;;;;5.60;1.53;;;22.70;99.90;;;;;;5049344;28;20196;-70
2023/09/20 11:22:23;;;;;;;3.43;1.70;;;22.90;99.90;;;;;;5046648;28;20217;-71
2023/09/20 11:24:51;;;;;;;4.03;1.50;;;23.00;99.90;;;;;;5043141;28;20775;-70
2023/09/20 11:27:17;;;;;;;3.20;1.43;;;23.00;99.90;;;;;;5052075;28;20181;-73
2023/09/20 11:29:48;;;;;;;2.50;1.30;;;22.90;99.90;;;;;;5051403;28;20245;-69
2023/09/20 11:32:16;;;;;;;4.67;1.60;;;22.90;99.90;;;;;;5052412;28;20181;-69
2023/09/20 11:34:49;;;;;;;5.00;1.70;;;22.90;99.90;;;;;;5044214;28;20291;-72
2023/09/20 11:37:19;;;;;;;2.93;1.30;;;22.90;99.90;;;;;;5024176;28;20180;-72
2023/09/20 11:39:49;;;;;;;2.73;1.47;;;22.90;99.90;;;;;;5048181;28;20180;-68
2023/09/20 11:42:34;;;;;;;3.27;1.43;;;23.20;99.90;;;;;;5047675;28;20265;-69
2023/09/20 11:45:05;;;;;;;3.73;1.40;;;23.10;99.90;;;;;;5042635;28;20756;-69
2023/09/20 11:47:33;;;;;;;4.60;1.60;;;23.00;99.90;;;;;;5052081;28;20677;-70
2023/09/20 11:49:59;;;;;;;3.33;1.60;;;22.90;99.90;;;;;;5050946;28;20189;-69
2023/09/20 11:52:27;;;;;;;3.50;1.33;;;23.00;99.90;;;;;;5051775;28;20205;-69
2023/09/20 11:54:56;;;;;;;3.37;1.20;;;23.00;99.90;;;;;;5042957;28;20324;-69
2023/09/20 11:57:24;;;;;;;5.77;2.70;;;22.90;99.90;;;;;;5051840;28;20166;-69
2023/09/20 11:59:50;;;;;;;3.90;1.43;;;22.90;99.90;;;;;;5042594;28;20181;-71
2023/09/20 12:02:16;;;;;;;4.50;1.80;;;23.10;99.90;;;;;;5051343;28;20654;-70
2023/09/20 12:04:43;;;;;;;6.13;2.10;;;23.20;99.90;;;;;;5035250;28;20720;-70
2023/09/20 12:07:09;;;;;;;2.87;1.27;;;23.40;99.90;;;;;;5043301;28;20246;-70
2023/09/20 12:09:36;;;;;;;5.20;1.30;;;23.50;99.90;;;;;;5050822;28;20183;-70
2023/09/20 12:12:06;;;;;;;10.67;4.37;;;23.40;99.90;;;;;;5048582;28;20258;-71
2023/09/20 12:14:34;;;;;;;19.07;4.70;;;23.50;99.90;;;;;;5039492;28;20205;-70
2023/09/20 12:17:00;;;;;;;7.13;1.97;;;23.40;99.90;;;;;;5050413;28;20185;-71
2023/09/20 12:19:26;;;;;;;5.33;1.40;;;23.10;99.90;;;;;;5042376;28;20276;-71
2023/09/20 12:21:51;;;;;;;3.93;1.20;;;23.20;99.90;;;;;;5051252;28;20283;-71
2023/09/20 12:24:17;;;;;;;2.90;1.40;;;23.40;99.90;;;;;;5051103;28;20229;-74
2023/09/20 12:26:43;;;;;;;2.13;1.10;;;23.50;99.90;;;;;;5050996;28;20674;-72
2023/09/20 12:29:09;;;;;;;1.63;0.93;;;23.80;99.90;;;;;;5046907;28;20190;-71
2023/09/20 12:31:34;;;;;;;5.93;1.20;;;24.00;99.90;;;;;;5045112;28;20194;-69
2023/09/20 12:34:03;;;;;;;4.30;1.23;;;23.90;99.90;;;;;;5048463;28;20260;-69
2023/09/20 12:36:31;;;;;;;3.50;1.50;;;24.00;99.90;;;;;;5039395;28;20203;-72
2023/09/20 12:39:01;;;;;;;6.77;3.60;;;24.10;99.90;;;;;;5048666;28;20955;-72
2023/09/20 12:41:27;;;;;;;4.90;1.60;;;24.10;99.90;;;;;;5045228;28;20658;-72
2023/09/20 12:43:52;;;;;;;6.70;1.40;;;24.10;99.90;;;;;;5026174;28;20186;-72
2023/09/20 12:46:18;;;;;;;5.00;1.00;;;24.30;99.90;;;;;;5026703;28;20307;-70
2023/09/20 12:48:44;;;;;;;3.33;1.10;;;24.40;99.90;;;;;;5024490;28;20194;-71
2023/09/20 12:51:16;;;;;;;3.63;1.30;;;24.70;99.90;;;;;;5026754;28;20278;-71
2023/09/20 12:53:43;;;;;;;5.83;1.30;;;25.10;99.90;;;;;;5025611;28;21023;-70
2023/09/20 12:56:11;;;;;;;6.53;1.50;;;25.10;99.90;;;;;;5025094;28;20726;-70
2023/09/20 12:58:39;;;;;;;4.77;0.90;;;25.00;99.90;;;;;;5024445;28;20175;-70
2023/09/20 13:01:07;;;;;;;2.80;1.10;;;25.30;99.90;;;;;;5024554;28;20270;-71
2023/09/20 13:03:33;;;;;;;4.30;1.20;;;25.50;99.90;;;;;;5026649;28;20194;-70
2023/09/20 13:05:58;;;;;;;3.30;1.40;;;25.70;99.90;;;;;;5025831;28;20922;-70
2023/09/20 13:08:24;;;;;;;2.77;1.20;;;25.70;99.90;;;;;;5043278;28;20266;-69
2023/09/20 13:10:51;;;;;;;3.57;1.23;;;25.90;99.90;;;;;;5065655;28;20179;-69
2023/09/20 13:13:17;;;;;;;5.13;1.07;;;26.10;99.90;;;;;;5044990;28;20184;-69
2023/09/20 13:15:43;;;;;;;5.80;1.23;;;25.80;99.90;;;;;;5031369;28;20215;-69
2023/09/20 13:18:11;;;;;;;2.10;1.17;;;25.90;99.90;;;;;;5033252;28;20557;-70
2023/09/20 13:20:37;;;;;;;2.13;0.90;;;26.10;99.90;;;;;;5050357;28;20207;-69
2023/09/20 13:23:04;;;;;;;3.57;1.10;;;26.20;99.90;;;;;;5041728;28;20703;-69
2023/09/20 13:25:32;;;;;;;2.70;1.10;;;26.20;99.90;;;;;;5043604;28;20600;-68
2023/09/20 13:27:58;;;;;;;3.93;1.00;;;26.10;99.90;;;;;;5047638;28;20198;-69
2023/09/20 13:30:24;;;;;;;4.50;1.10;;;26.20;99.90;;;;;;5050059;28;20264;-69